Time;durP1;ratioP1;P1;durP2;ratioP2;P2;SDS_P1;SDS_P2;PMS_P1;PMS_P2;Temp;Humidity;BMP_temperature;BMP_pressure;BME280_temperature;BME280_humidity;BME280_pressure;Samples;Min_cycle;Max_cycle;Signal;HPM_P1;HPM_P2
2023/01/08 00:00:05;;;;;;;;;;;;;;;4.31;100.00;98847.94;4300195;33;19945;-75
2023/01/08 00:02:58;;;;;;;;;;;;;;;4.14;100.00;98842.25;4297226;33;19941;-75
2023/01/08 00:05:28;;;;;;;;;;;;;;;4.17;100.00;98835.69;4294738;33;19971;-75
2023/01/08 00:07:54;;;;;;;;;;;;;;;4.24;100.00;98835.66;4311058;33;19962;-74
2023/01/08 00:10:20;;;;;;;;;;;;;;;4.20;100.00;98840.59;4309905;33;19937;-75
2023/01/08 00:12:46;;;;;;;;;;;;;;;4.28;100.00;98832.34;4310896;33;20014;-75
2023/01/08 00:15:13;;;;;;;;;;;;;;;4.20;100.00;98835.28;4311717;33;20282;-75
2023/01/08 00:17:38;;;;;;;;;;;;;;;4.27;100.00;98825.38;4311623;33;20011;-75
2023/01/08 00:20:05;;;;;;;;;;;;;;;4.22;100.00;98822.53;4310229;33;19958;-74
2023/01/08 00:22:31;;;;;;;;;;;;;;;3.69;100.00;98823.59;4295385;33;19940;-75
2023/01/08 00:24:58;;;;;;;;;;;;;;;3.61;100.00;98821.97;4298382;33;19971;-75
2023/01/08 00:27:24;;;;;;;;;;;;;;;3.77;100.00;98822.56;4298691;33;20007;-75
2023/01/08 00:29:50;;;;;;;;;;;;;;;3.69;100.00;98817.47;4296117;33;19945;-75
2023/01/08 00:32:16;;;;;;;;;;;;;;;4.49;100.00;98817.06;4298269;33;20323;-75
2023/01/08 00:34:43;;;;;;;;;;;;;;;4.04;100.00;98814.44;4298324;33;20335;-73
2023/01/08 00:37:09;;;;;;;;;;;;;;;3.94;100.00;98814.88;4296559;33;19945;-75
2023/01/08 00:39:35;;;;;;;;;;;;;;;4.12;100.00;98806.22;4285977;33;20828;-74
2023/01/08 00:42:01;;;;;;;;;;;;;;;3.54;100.00;98802.56;4282876;33;19955;-74
2023/01/08 00:44:28;;;;;;;;;;;;;;;3.68;100.00;98800.66;4282539;33;19959;-74
2023/01/08 00:46:53;;;;;;;;;;;;;;;3.93;100.00;98794.63;4278180;33;19961;-73
2023/01/08 00:49:20;;;;;;;;;;;;;;;3.69;100.00;98786.31;4267252;33;19942;-74
2023/01/08 00:51:46;;;;;;;;;;;;;;;4.28;100.00;98780.91;4268394;33;19953;-75
2023/01/08 00:54:12;;;;;;;;;;;;;;;4.16;100.00;98783.44;4278216;33;19957;-74
2023/01/08 00:56:38;;;;;;;;;;;;;;;4.15;100.00;98768.50;4282639;33;19949;-75
2023/01/08 00:59:05;;;;;;;;;;;;;;;4.25;100.00;98768.00;4294387;33;19941;-73
2023/01/08 03:01:44;;;;;;;;;;;;;;;3.99;100.00;98712.00;4578706;27;19945;-75
2023/01/08 03:04:22;;;;;;;;;;;;;;;3.75;100.00;98700.25;4294900;33;19992;-73
2023/01/08 03:06:48;;;;;;;;;;;;;;;3.50;100.00;98641.63;4297268;33;19974;-75
2023/01/08 03:09:15;;;;;;;;;;;;;;;3.77;100.00;98713.37;4296494;33;19948;-74
2023/01/08 03:11:44;;;;;;;;;;;;;;;3.79;100.00;98711.28;4297271;33;19949;-75
2023/01/08 03:14:30;;;;;;;;;;;;;;;3.68;100.00;98710.12;4278869;33;19984;-74
2023/01/08 03:16:59;;;;;;;;;;;;;;;4.09;100.00;98711.53;4281151;33;19991;-75
2023/01/08 03:19:31;;;;;;;;;;;;;;;4.03;100.00;98698.25;4251068;33;19945;-73
2023/01/08 03:21:59;;;;;;;;;;;;;;;3.78;100.00;98699.00;4224293;34;19973;-76
2023/01/08 03:24:27;;;;;;;;;;;;;;;3.60;100.00;98705.03;4223268;34;20139;-75
2023/01/08 03:27:02;;;;;;;;;;;;;;;3.43;100.00;98702.03;4224285;34;20335;-76
2023/01/08 03:29:30;;;;;;;;;;;;;;;3.31;100.00;98714.38;4210999;33;19962;-75
2023/01/08 03:31:59;;;;;;;;;;;;;;;3.00;100.00;98707.91;4224156;34;19958;-76
2023/01/08 03:34:27;;;;;;;;;;;;;;;3.02;100.00;98716.53;4224048;34;20004;-76
2023/01/08 03:36:57;;;;;;;;;;;;;;;3.42;100.00;98716.38;4223974;33;20365;-75
2023/01/08 03:39:36;;;;;;;;;;;;;;;3.35;100.00;98715.59;4222310;34;19949;-73
2023/01/08 03:42:06;;;;;;;;;;;;;;;3.37;100.00;98713.56;4226912;34;20265;-74
2023/01/08 03:44:33;;;;;;;;;;;;;;;3.43;100.00;98710.84;4215694;34;19974;-74
2023/01/08 03:46:58;;;;;;;;;;;;;;;3.33;100.00;98712.31;4213769;34;19942;-74
2023/01/08 03:49:27;;;;;;;;;;;;;;;3.37;100.00;98713.56;4209174;34;20089;-73
2023/01/08 03:51:53;;;;;;;;;;;;;;;3.84;100.00;98702.66;4213591;33;20491;-74
2023/01/08 03:54:22;;;;;;;;;;;;;;;3.87;100.00;98703.06;4239878;33;19960;-73
2023/01/08 03:56:48;;;;;;;;;;;;;;;3.79;100.00;98679.34;4254428;33;19953;-74
2023/01/08 03:59:15;;;;;;;;;;;;;;;3.71;100.00;98682.25;4270197;33;19951;-74
2023/01/08 04:01:41;;;;;;;;;;;;;;;3.90;100.00;98686.62;4238631;33;20395;-75
2023/01/08 04:04:09;;;;;;;;;;;;;;;3.76;100.00;98685.09;4240622;33;19938;-74
2023/01/08 04:06:35;;;;;;;;;;;;;;;3.59;100.00;98687.41;4240578;33;19946;-75
2023/01/08 04:09:02;;;;;;;;;;;;;;;3.51;100.00;98677.84;4224954;34;20364;-75
2023/01/08 04:11:28;;;;;;;;;;;;;;;3.57;100.00;98679.66;4224111;34;19968;-74
2023/01/08 04:13:55;;;;;;;;;;;;;;;3.63;100.00;98676.13;4226359;34;19969;-75
2023/01/08 04:16:21;;;;;;;;;;;;;;;3.89;100.00;98674.34;4237477;33;19946;-75
2023/01/08 04:18:48;;;;;;;;;;;;;;;3.82;100.00;98662.94;4239611;33;20327;-75
2023/01/08 04:21:14;;;;;;;;;;;;;;;3.99;100.00;98680.03;4238192;33;19950;-75
2023/01/08 04:23:40;;;;;;;;;;;;;;;3.94;100.00;98682.53;4240260;33;19999;-76
2023/01/08 04:26:07;;;;;;;;;;;;;;;3.74;100.00;98682.63;4239339;33;19942;-75
2023/01/08 04:28:33;;;;;;;;;;;;;;;3.70;100.00;98683.28;4239948;33;19956;-76
2023/01/08 04:31:06;;;;;;;;;;;;;;;4.03;100.00;98676.94;4239327;33;19954;-75
2023/01/08 04:33:33;;;;;;;;;;;;;;;3.82;100.00;98673.59;4239443;33;19953;-75
2023/01/08 04:38:33;;;;;;;;;;;;;;;3.97;100.00;98666.13;4239462;33;20347;-77
2023/01/08 04:40:59;;;;;;;;;;;;;;;3.84;100.00;98650.22;4277837;33;20304;-75
2023/01/08 04:43:26;;;;;;;;;;;;;;;3.81;100.00;98651.47;4295422;33;19953;-74
2023/01/08 04:45:56;;;;;;;;;;;;;;;4.06;100.00;98647.19;4282693;33;19953;-75
2023/01/08 04:48:22;;;;;;;;;;;;;;;4.03;100.00;98652.97;4282893;33;19952;-75
2023/01/08 04:50:48;;;;;;;;;;;;;;;4.32;100.00;98651.50;4282569;33;20013;-74
2023/01/08 04:53:14;;;;;;;;;;;;;;;3.90;100.00;98653.88;4282219;33;19950;-75
2023/01/08 04:55:40;;;;;;;;;;;;;;;3.90;100.00;98649.34;4288168;33;19949;-73
2023/01/08 04:58:07;;;;;;;;;;;;;;;4.03;100.00;98642.31;4280989;33;19949;-74
2023/01/08 05:00:34;;;;;;;;;;;;;;;3.91;100.00;98640.34;4282043;33;21040;-74
2023/01/08 05:03:00;;;;;;;;;;;;;;;3.68;100.00;98640.88;4271822;33;20022;-74
2023/01/08 05:05:26;;;;;;;;;;;;;;;4.08;100.00;98639.78;4267747;33;19942;-74
2023/01/08 05:07:53;;;;;;;;;;;;;;;3.85;100.00;98641.19;4266664;33;19950;-75
2023/01/08 05:10:19;;;;;;;;;;;;;;;3.90;100.00;98644.03;4266751;33;19957;-75
2023/01/08 05:12:45;;;;;;;;;;;;;;;3.91;100.00;98640.34;4267866;33;20015;-75
2023/01/08 05:15:11;;;;;;;;;;;;;;;4.30;100.00;98649.03;4267370;33;19958;-74
2023/01/08 05:17:37;;;;;;;;;;;;;;;3.96;100.00;98648.50;4267520;33;20300;-74
2023/01/08 05:20:03;;;;;;;;;;;;;;;4.41;100.00;98654.72;4265417;33;19956;-73
2023/01/08 05:22:30;;;;;;;;;;;;;;;4.14;100.00;98646.94;4265247;33;20006;-74
2023/01/08 05:24:56;;;;;;;;;;;;;;;4.41;100.00;98633.38;4267440;33;20007;-73
2023/01/08 05:27:22;;;;;;;;;;;;;;;4.00;100.00;98631.06;4263073;33;19976;-73
2023/01/08 05:29:50;;;;;;;;;;;;;;;4.18;100.00;98630.28;4264387;33;19942;-74
2023/01/08 05:32:17;;;;;;;;;;;;;;;4.35;100.00;98635.88;4265829;33;19949;-73
2023/01/08 05:34:44;;;;;;;;;;;;;;;4.46;100.00;98625.53;4269396;33;20089;-75
2023/01/08 05:37:17;;;;;;;;;;;;;;;4.21;100.00;98623.69;4268679;33;19949;-76
2023/01/08 05:39:46;;;;;;;;;;;;;;;4.00;100.00;98616.91;4268714;33;19949;-75
2023/01/08 05:42:14;;;;;;;;;;;;;;;3.84;100.00;98622.78;4266132;33;19942;-75
2023/01/08 05:44:46;;;;;;;;;;;;;;;3.74;100.00;98623.25;4271828;33;20072;-76
2023/01/08 05:47:15;;;;;;;;;;;;;;;4.08;100.00;98618.47;4283096;33;19945;-76
2023/01/08 05:49:47;;;;;;;;;;;;;;;4.32;100.00;98615.00;4283879;33;19945;-76
2023/01/08 05:52:19;;;;;;;;;;;;;;;4.43;100.00;98604.66;4275965;33;20016;-74
2023/01/08 05:54:46;;;;;;;;;;;;;;;4.27;100.00;98601.50;4271376;33;19961;-76
2023/01/08 05:57:12;;;;;;;;;;;;;;;4.07;100.00;98595.53;4280160;33;20267;-76
2023/01/08 05:59:38;;;;;;;;;;;;;;;3.99;100.00;98605.44;4294211;33;19951;-76
2023/01/08 06:02:06;;;;;;;;;;;;;;;4.09;100.00;98598.81;4293803;33;19952;-76
2023/01/08 06:04:32;;;;;;;;;;;;;;;4.13;100.00;98592.84;4292596;33;19951;-75
2023/01/08 06:06:58;;;;;;;;;;;;;;;4.28;100.00;98595.16;4294879;33;19957;-76
2023/01/08 06:09:24;;;;;;;;;;;;;;;4.12;100.00;98579.72;4294781;33;19941;-76
2023/01/08 06:11:51;;;;;;;;;;;;;;;4.11;100.00;98576.22;4295648;33;20006;-76
2023/01/08 06:14:17;;;;;;;;;;;;;;;3.88;100.00;98579.50;4263476;33;20065;-75
2023/01/08 06:16:44;;;;;;;;;;;;;;;4.18;100.00;98586.84;4262640;33;19946;-74
2023/01/08 06:19:10;;;;;;;;;;;;;;;4.10;100.00;98579.09;4266436;33;20446;-75
2023/01/08 06:21:37;;;;;;;;;;;;;;;4.08;100.00;98568.66;4265113;33;20360;-76
2023/01/08 06:24:03;;;;;;;;;;;;;;;4.67;100.00;98574.44;4266613;33;20086;-75
2023/01/08 06:26:30;;;;;;;;;;;;;;;3.99;100.00;98578.81;4265551;33;19954;-76
2023/01/08 06:28:55;;;;;;;;;;;;;;;4.17;100.00;98579.88;4264791;33;20230;-73
2023/01/08 06:31:22;;;;;;;;;;;;;;;4.13;100.00;98584.00;4269336;33;19937;-73
2023/01/08 06:33:49;;;;;;;;;;;;;;;4.11;100.00;98575.41;4256032;33;20296;-73
2023/01/08 06:36:15;;;;;;;;;;;;;;;3.90;100.00;98573.97;4258196;33;19946;-73
2023/01/08 06:38:41;;;;;;;;;;;;;;;3.88;100.00;98576.84;4261702;33;19991;-73
2023/01/08 06:41:09;;;;;;;;;;;;;;;4.06;100.00;98583.25;4250074;33;20410;-73
2023/01/08 06:43:35;;;;;;;;;;;;;;;4.21;100.00;98570.41;4251819;33;19945;-73
2023/01/08 06:46:02;;;;;;;;;;;;;;;4.08;100.00;98575.84;4264991;33;19954;-73
2023/01/08 06:48:28;;;;;;;;;;;;;;;4.03;100.00;98570.38;4264400;33;19941;-75
2023/01/08 06:50:58;;;;;;;;;;;;;;;4.19;100.00;98575.13;4264239;33;20041;-74
2023/01/08 06:53:24;;;;;;;;;;;;;;;4.29;100.00;98566.63;4268223;33;19980;-74
2023/01/08 06:55:59;;;;;;;;;;;;;;;3.83;100.00;98563.38;4266100;33;19959;-74
2023/01/08 06:58:35;;;;;;;;;;;;;;;4.05;100.00;98584.28;4249063;33;20376;-73
2023/01/08 07:01:13;;;;;;;;;;;;;;;4.15;100.00;98590.75;4251041;33;19972;-76
2023/01/08 07:03:38;;;;;;;;;;;;;;;4.16;100.00;98583.56;4236818;33;19950;-76
2023/01/08 07:06:05;;;;;;;;;;;;;;;4.67;100.00;98581.63;4238352;33;19951;-76
2023/01/08 07:08:31;;;;;;;;;;;;;;;4.31;100.00;98560.06;4229084;33;19994;-75
2023/01/08 07:11:02;;;;;;;;;;;;;;;4.31;100.00;98562.72;4233250;33;20009;-76
2023/01/08 07:13:28;;;;;;;;;;;;;;;3.98;100.00;98571.03;4238420;33;19954;-76
2023/01/08 07:15:55;;;;;;;;;;;;;;;3.88;100.00;98571.50;4221995;33;19938;-76
2023/01/08 07:18:21;;;;;;;;;;;;;;;4.12;100.00;98561.88;4216460;33;20024;-76
2023/01/08 07:20:48;;;;;;;;;;;;;;;3.75;100.00;98560.94;4224154;34;20328;-75
2023/01/08 07:23:14;;;;;;;;;;;;;;;3.86;100.00;98557.59;4235863;33;20002;-74
2023/01/08 07:25:40;;;;;;;;;;;;;;;4.08;100.00;98560.69;4236982;33;19962;-76
2023/01/08 07:28:09;;;;;;;;;;;;;;;4.04;100.00;98558.66;4235419;33;19964;-76
2023/01/08 07:30:36;;;;;;;;;;;;;;;3.99;100.00;98568.16;4234672;33;20072;-74
2023/01/08 07:33:02;;;;;;;;;;;;;;;4.12;100.00;98545.87;4236652;33;20336;-76
2023/01/08 07:35:28;;;;;;;;;;;;;;;3.88;100.00;98560.03;4238246;33;19942;-76
2023/01/08 07:37:54;;;;;;;;;;;;;;;4.20;100.00;98560.78;4248817;33;20893;-76
2023/01/08 07:40:21;;;;;;;;;;;;;;;3.75;100.00;98566.28;4241018;33;19997;-76
2023/01/08 07:42:47;;;;;;;;;;;;;;;4.07;100.00;98574.22;4200673;34;20375;-76
2023/01/08 07:45:13;;;;;;;;;;;;;;;4.06;100.00;98573.41;4196031;34;19951;-79
2023/01/08 07:47:39;;;;;;;;;;;;;;;3.91;100.00;98579.06;4205749;34;20322;-75
2023/01/08 07:50:06;;;;;;;;;;;;;;;4.02;100.00;98576.72;4211424;34;19965;-76
2023/01/08 07:52:32;;;;;;;;;;;;;;;3.74;100.00;98570.00;4212572;34;19960;-77
2023/01/08 07:54:59;;;;;;;;;;;;;;;3.23;100.00;98564.56;4209656;34;19947;-77
2023/01/08 07:57:27;;;;;;;;;;;;;;;3.60;100.00;98577.25;4206119;34;19953;-76
2023/01/08 07:59:53;;;;;;;;;;;;;;;3.80;100.00;98580.59;4207268;34;19973;-76
2023/01/08 08:02:20;;;;;;;;;;;;;;;3.47;100.00;98572.81;4207580;34;19954;-76
2023/01/08 08:04:46;;;;;;;;;;;;;;;3.67;100.00;98569.22;4225974;33;19948;-76
2023/01/08 08:07:12;;;;;;;;;;;;;;;3.90;100.00;98564.12;4236417;33;20349;-75
2023/01/08 08:09:38;;;;;;;;;;;;;;;4.07;100.00;98558.22;4232693;33;19950;-77
2023/01/08 08:12:05;;;;;;;;;;;;;;;4.11;100.00;98564.75;4235748;33;19948;-76
2023/01/08 08:14:31;;;;;;;;;;;;;;;3.58;100.00;98553.50;4256880;33;19994;-76
2023/01/08 08:16:57;;;;;;;;;;;;;;;3.57;100.00;98543.88;4264812;33;19942;-76
2023/01/08 08:19:24;;;;;;;;;;;;;;;3.71;100.00;98549.12;4241773;33;19960;-75
2023/01/08 08:21:50;;;;;;;;;;;;;;;3.49;100.00;98552.13;4243180;33;20076;-76
2023/01/08 08:24:16;;;;;;;;;;;;;;;3.64;100.00;98544.66;4247598;33;19963;-75
2023/01/08 08:26:42;;;;;;;;;;;;;;;3.99;100.00;98551.34;4243623;33;19956;-75
2023/01/08 08:29:09;;;;;;;;;;;;;;;3.67;100.00;98547.91;4269837;33;20358;-75
2023/01/08 08:31:35;;;;;;;;;;;;;;;3.96;100.00;98552.59;4272335;33;19966;-76
2023/01/08 08:34:02;;;;;;;;;;;;;;;3.84;100.00;98549.00;4270745;33;19954;-76
2023/01/08 08:36:28;;;;;;;;;;;;;;;3.80;100.00;98547.81;4273557;33;19963;-75
2023/01/08 08:38:55;;;;;;;;;;;;;;;3.77;100.00;98538.41;4281383;33;19958;-76
2023/01/08 08:41:21;;;;;;;;;;;;;;;4.02;100.00;98547.41;4273414;33;20316;-76
2023/01/08 08:43:50;;;;;;;;;;;;;;;3.62;100.00;98536.06;4280426;33;20317;-76
2023/01/08 08:46:16;;;;;;;;;;;;;;;3.96;100.00;98541.94;4282214;33;19945;-79
2023/01/08 08:48:44;;;;;;;;;;;;;;;3.87;100.00;98537.91;4279612;33;19941;-76
2023/01/08 08:51:10;;;;;;;;;;;;;;;3.99;100.00;98528.19;4295433;33;20279;-76
2023/01/08 08:53:36;;;;;;;;;;;;;;;3.87;100.00;98529.94;4297626;33;19949;-77
2023/01/08 08:56:03;;;;;;;;;;;;;;;4.11;100.00;98533.59;4298256;33;19963;-76
2023/01/08 08:58:29;;;;;;;;;;;;;;;4.16;100.00;98543.59;4298325;33;19980;-77
2023/01/08 09:00:59;;;;;;;;;;;;;;;3.92;100.00;98534.59;4252061;33;19938;-77
2023/01/08 09:03:26;;;;;;;;;;;;;;;4.03;100.00;98535.75;4261861;33;19958;-75
2023/01/08 09:05:52;;;;;;;;;;;;;;;4.07;100.00;98528.91;4255178;33;19946;-75
2023/01/08 09:08:18;;;;;;;;;;;;;;;4.27;100.00;98537.53;4264836;33;19953;-76
2023/01/08 09:10:44;;;;;;;;;;;;;;;3.89;100.00;98533.19;4235978;33;19956;-74
2023/01/08 09:13:11;;;;;;;;;;;;;;;3.78;100.00;98533.88;4237111;33;19982;-76
2023/01/08 09:15:37;;;;;;;;;;;;;;;4.07;100.00;98528.91;4227618;33;20002;-76
2023/01/08 09:18:04;;;;;;;;;;;;;;;4.34;100.00;98521.47;4230153;33;19950;-75
2023/01/08 09:20:30;;;;;;;;;;;;;;;4.41;100.00;98516.09;4225814;33;19964;-76
2023/01/08 09:22:57;;;;;;;;;;;;;;;4.12;100.00;98507.78;4221611;33;20581;-75
2023/01/08 09:25:23;;;;;;;;;;;;;;;4.12;100.00;98513.13;4229564;33;20438;-75
2023/01/08 09:27:57;;;;;;;;;;;;;;;4.30;100.00;98505.13;4228666;33;19960;-77
2023/01/08 09:30:23;;;;;;;;;;;;;;;4.31;100.00;98504.09;4231432;33;19966;-75
2023/01/08 09:32:50;;;;;;;;;;;;;;;4.04;100.00;98495.56;4246051;33;19979;-75
2023/01/08 09:35:16;;;;;;;;;;;;;;;4.12;100.00;98486.47;4258260;33;20083;-75
2023/01/08 09:37:44;;;;;;;;;;;;;;;4.26;100.00;98493.28;4233620;33;19968;-77
2023/01/08 09:40:13;;;;;;;;;;;;;;;4.56;100.00;98487.19;4234933;33;19950;-76
2023/01/08 09:42:39;;;;;;;;;;;;;;;4.07;100.00;98488.97;4235462;33;19962;-76
2023/01/08 09:45:11;;;;;;;;;;;;;;;4.22;100.00;98489.41;4234515;33;19946;-75
2023/01/08 09:47:41;;;;;;;;;;;;;;;4.13;100.00;98482.75;4237435;33;19970;-75
2023/01/08 09:50:11;;;;;;;;;;;;;;;4.24;100.00;98474.00;4236756;33;19960;-76
2023/01/08 09:52:37;;;;;;;;;;;;;;;3.99;100.00;98474.91;4236464;33;19946;-77
2023/01/08 09:55:13;;;;;;;;;;;;;;;4.12;100.00;98465.97;4232234;33;20409;-76
2023/01/08 09:57:41;;;;;;;;;;;;;;;4.44;100.00;98462.34;4235089;33;19950;-75
2023/01/08 10:00:20;;;;;;;;;;;;;;;4.49;100.00;98465.94;4207646;34;19951;-75
2023/01/08 10:02:46;;;;;;;;;;;;;;;4.41;100.00;98458.25;4206401;34;19965;-74
2023/01/08 10:05:14;;;;;;;;;;;;;;;4.26;100.00;98463.97;4208794;34;19963;-77
2023/01/08 10:07:41;;;;;;;;;;;;;;;4.26;100.00;98461.31;4208436;34;20037;-75
2023/01/08 10:10:16;;;;;;;;;;;;;;;4.36;100.00;98445.59;4205553;34;19957;-75
2023/01/08 10:12:43;;;;;;;;;;;;;;;4.42;100.00;98437.72;4193441;34;20016;-74
2023/01/08 10:15:12;;;;;;;;;;;;;;;4.55;100.00;98426.91;4216893;33;19946;-74
2023/01/08 10:17:40;;;;;;;;;;;;;;;4.43;100.00;98428.69;4231000;33;19964;-75
2023/01/08 10:20:10;;;;;;;;;;;;;;;4.66;100.00;98417.31;4218800;34;19947;-76
2023/01/08 10:22:37;;;;;;;;;;;;;;;4.44;100.00;98419.69;4216387;34;20161;-75
2023/01/08 10:25:07;;;;;;;;;;;;;;;4.52;100.00;98427.38;4216399;34;20696;-74
2023/01/08 10:27:36;;;;;;;;;;;;;;;4.59;100.00;98425.41;4216148;34;20008;-75
2023/01/08 10:30:13;;;;;;;;;;;;;;;4.39;100.00;98406.19;4218383;34;19973;-75
2023/01/08 10:32:45;;;;;;;;;;;;;;;4.39;100.00;98414.19;4218838;34;20403;-76
2023/01/08 10:35:15;;;;;;;;;;;;;;;4.49;100.00;98401.16;4219783;34;20149;-74
2023/01/08 10:37:42;;;;;;;;;;;;;;;4.64;100.00;98398.91;4226239;33;19995;-74
2023/01/08 10:40:17;;;;;;;;;;;;;;;4.48;100.00;98388.84;4241461;33;19941;-73
2023/01/08 10:42:44;;;;;;;;;;;;;;;4.76;100.00;98390.13;4237366;33;20181;-74
2023/01/08 10:45:17;;;;;;;;;;;;;;;4.57;100.00;98398.16;4239884;33;20073;-73
2023/01/08 10:47:46;;;;;;;;;;;;;;;4.78;100.00;98393.37;4242471;33;19952;-74
2023/01/08 10:50:19;;;;;;;;;;;;;;;4.87;100.00;98386.69;4242322;33;20064;-72
2023/01/08 10:52:59;;;;;;;;;;;;;;;4.96;100.00;98382.59;4270168;33;20059;-74
2023/01/08 10:55:28;;;;;;;;;;;;;;;4.76;100.00;98390.13;4277113;33;19945;-73
2023/01/08 10:57:59;;;;;;;;;;;;;;;5.02;100.00;98389.69;4271303;33;19953;-73
2023/01/08 11:00:26;;;;;;;;;;;;;;;4.91;100.00;98387.81;4272874;33;19948;-74
2023/01/08 11:02:53;;;;;;;;;;;;;;;4.71;100.00;98383.59;4276047;33;19996;-73
2023/01/08 11:05:27;;;;;;;;;;;;;;;4.57;100.00;98386.69;4276664;33;19951;-73
2023/01/08 11:07:58;;;;;;;;;;;;;;;4.98;100.00;98393.87;4276093;33;19953;-73
2023/01/08 11:10:25;;;;;;;;;;;;;;;4.77;100.00;98386.41;4274783;33;19963;-74
2023/01/08 11:13:17;;;;;;;;;;;;;;;4.45;100.00;98390.13;4271993;33;19992;-74
2023/01/08 11:15:44;;;;;;;;;;;;;;;4.42;100.00;98387.09;4268690;33;19957;-73
2023/01/08 11:18:14;;;;;;;;;;;;;;;4.71;100.00;98383.59;4272436;33;19969;-74
2023/01/08 11:20:40;;;;;;;;;;;;;;;4.67;100.00;98381.62;4269878;33;20000;-73
2023/01/08 11:23:16;;;;;;;;;;;;;;;4.52;100.00;98384.72;4268191;33;20017;-73
2023/01/08 11:25:46;;;;;;;;;;;;;;;4.86;100.00;98395.72;4269218;33;19949;-72
2023/01/08 11:28:15;;;;;;;;;;;;;;;5.04;100.00;98392.97;4277048;33;20451;-74
2023/01/08 11:30:49;;;;;;;;;;;;;;;4.92;100.00;98378.78;4277384;33;20007;-74
2023/01/08 11:33:20;;;;;;;;;;;;;;;4.80;100.00;98375.28;4274705;33;20000;-71
2023/01/08 11:35:48;;;;;;;;;;;;;;;5.14;100.00;98372.91;4276670;33;19953;-73
2023/01/08 11:38:16;;;;;;;;;;;;;;;4.86;100.00;98375.16;4278563;33;19945;-72
2023/01/08 11:40:58;;;;;;;;;;;;;;;5.01;100.00;98366.75;4274273;33;20325;-73
2023/01/08 11:43:29;;;;;;;;;;;;;;;5.02;100.00;98359.56;4276825;33;19979;-75
2023/01/08 11:45:55;;;;;;;;;;;;;;;4.89;100.00;98357.91;4276239;33;19945;-74
2023/01/08 11:48:21;;;;;;;;;;;;;;;4.66;100.00;98364.81;4276448;33;20006;-74
2023/01/08 11:51:03;;;;;;;;;;;;;;;4.82;100.00;98367.84;4276088;33;19959;-73
2023/01/08 11:53:34;;;;;;;;;;;;;;;5.13;100.00;98368.63;4278588;33;19965;-75
2023/01/08 11:56:09;;;;;;;;;;;;;;;5.02;100.00;98372.88;4278210;33;20019;-74
2023/01/08 11:58:44;;;;;;;;;;;;;;;5.23;100.00;98368.84;4279040;33;19945;-75
2023/01/08 12:01:23;;;;;;;;;;;;;;;5.71;100.00;98354.47;4442389;28;20013;-73
2023/01/08 12:03:58;;;;;;;;;;;;;;;4.96;100.00;98358.59;4285035;33;19953;-73
2023/01/08 12:06:34;;;;;;;;;;;;;;;4.93;100.00;98364.44;4276638;33;19941;-73
2023/01/08 12:09:33;;;;;;;;;;;;;;;4.88;100.00;98356.28;4280162;33;19945;-75
2023/01/08 12:11:59;;;;;;;;;;;;;;;4.75;100.00;98361.81;4258105;33;20008;-73
2023/01/08 12:14:26;;;;;;;;;;;;;;;4.54;100.00;98355.97;4280436;33;19955;-73
2023/01/08 12:17:01;;;;;;;;;;;;;;;4.46;100.00;98353.63;4281271;33;20844;-73
2023/01/08 12:19:30;;;;;;;;;;;;;;;4.60;100.00;98348.91;4281357;33;20237;-74
2023/01/08 12:22:15;;;;;;;;;;;;;;;4.76;100.00;98347.44;4279395;33;20244;-74
2023/01/08 12:24:41;;;;;;;;;;;;;;;4.62;100.00;98342.28;4279975;33;20098;-74
2023/01/08 12:27:07;;;;;;;;;;;;;;;4.69;100.00;98340.34;4280322;33;19949;-73
2023/01/08 12:29:39;;;;;;;;;;;;;;;4.96;100.00;98331.91;4280792;33;19976;-74
2023/01/08 12:32:16;;;;;;;;;;;;;;;5.06;100.00;98321.50;4279296;33;20061;-75
2023/01/08 12:35:02;;;;;;;;;;;;;;;4.37;100.00;98273.13;4279496;33;19961;-72
2023/01/08 12:37:33;;;;;;;;;;;;;;;4.66;100.00;98326.66;4296258;33;19993;-73
2023/01/08 12:40:06;;;;;;;;;;;;;;;5.33;100.00;98329.06;4310869;33;19975;-73
2023/01/08 12:42:37;;;;;;;;;;;;;;;5.18;100.00;98318.03;4313348;33;20236;-74
2023/01/08 12:45:06;;;;;;;;;;;;;;;4.97;100.00;98314.88;4311876;33;19951;-74
2023/01/08 12:47:34;;;;;;;;;;;;;;;4.81;100.00;98318.22;4302808;33;19999;-73
2023/01/08 12:50:08;;;;;;;;;;;;;;;4.85;100.00;98319.38;4310510;33;19949;-75
2023/01/08 12:52:46;;;;;;;;;;;;;;;4.75;100.00;98309.28;4310049;33;19978;-75
2023/01/08 12:55:12;;;;;;;;;;;;;;;4.71;100.00;98306.25;4300607;33;19949;-76
2023/01/08 12:57:46;;;;;;;;;;;;;;;5.27;100.00;98308.63;4307523;33;19963;-75
2023/01/08 13:00:28;;;;;;;;;;;;;;;5.16;100.00;98312.12;4288645;33;19971;-77
2023/01/08 13:02:56;;;;;;;;;;;;;;;5.09;100.00;98309.56;4294297;33;19999;-77
2023/01/08 13:05:22;;;;;;;;;;;;;;;4.89;100.00;98313.34;4292760;33;20016;-75
2023/01/08 13:07:53;;;;;;;;;;;;;;;4.84;100.00;98304.44;4276570;33;20638;-76
2023/01/08 13:10:23;;;;;;;;;;;;;;;4.67;100.00;98305.09;4251318;33;19953;-76
2023/01/08 13:12:50;;;;;;;;;;;;;;;4.57;100.00;98312.84;4250967;33;19956;-76
2023/01/08 13:15:21;;;;;;;;;;;;;;;5.03;100.00;98295.28;4250561;33;20330;-74
2023/01/08 13:17:48;;;;;;;;;;;;;;;4.78;100.00;98300.03;4250267;33;20012;-76
2023/01/08 13:20:20;;;;;;;;;;;;;;;4.30;100.00;98289.22;4250340;33;19950;-76
2023/01/08 13:22:51;;;;;;;;;;;;;;;4.29;100.00;98292.97;4249748;33;19960;-76
2023/01/08 13:25:18;;;;;;;;;;;;;;;4.18;100.00;98293.72;4248620;33;19955;-76
2023/01/08 13:27:44;;;;;;;;;;;;;;;4.48;100.00;98299.03;4243558;33;20009;-77
2023/01/08 13:30:29;;;;;;;;;;;;;;;4.68;100.00;98301.37;4244967;33;19963;-77
2023/01/08 13:32:56;;;;;;;;;;;;;;;4.43;100.00;98295.41;4266174;33;19960;-76
2023/01/08 13:35:28;;;;;;;;;;;;;;;4.58;100.00;98301.16;4265837;33;19975;-76
2023/01/08 13:38:09;;;;;;;;;;;;;;;4.83;100.00;98284.13;4266149;33;19945;-79
2023/01/08 13:40:36;;;;;;;;;;;;;;;4.65;100.00;98291.19;4254959;33;20276;-74
2023/01/08 13:43:05;;;;;;;;;;;;;;;4.55;100.00;98290.94;4279814;33;19956;-76
2023/01/08 13:45:31;;;;;;;;;;;;;;;4.71;100.00;98276.94;4278854;33;20336;-76
2023/01/08 13:47:59;;;;;;;;;;;;;;;4.72;100.00;98278.56;4249873;33;19946;-76
2023/01/08 13:50:27;;;;;;;;;;;;;;;4.85;100.00;98282.88;4251952;33;19950;-75
2023/01/08 13:53:02;;;;;;;;;;;;;;;4.72;100.00;98278.56;4233457;33;20300;-74
2023/01/08 13:55:31;;;;;;;;;;;;;;;4.79;100.00;98277.66;4227415;33;19978;-75
2023/01/08 13:57:58;;;;;;;;;;;;;;;4.61;100.00;98287.38;4236419;33;20064;-74
2023/01/08 14:00:29;;;;;;;;;;;;;;;5.00;100.00;98285.06;4210253;34;19996;-75
2023/01/08 14:03:02;;;;;;;;;;;;;;;4.71;100.00;98276.94;4207609;34;20010;-75
2023/01/08 14:05:35;;;;;;;;;;;;;;;4.91;100.00;98275.78;4209076;34;20018;-76
2023/01/08 14:08:02;;;;;;;;;;;;;;;5.42;100.00;98282.25;4209044;34;19990;-75
2023/01/08 14:10:28;;;;;;;;;;;;;;;4.82;100.00;98278.00;4206674;34;20013;-73
2023/01/08 14:13:04;;;;;;;;;;;;;;;4.90;100.00;98279.50;4209212;34;19955;-75
2023/01/08 14:15:32;;;;;;;;;;;;;;;5.36;100.00;98285.87;4209900;34;19944;-75
2023/01/08 14:18:00;;;;;;;;;;;;;;;4.85;100.00;98282.03;4211916;33;19947;-76
2023/01/08 14:20:31;;;;;;;;;;;;;;;5.15;100.00;98286.47;4232563;33;19948;-75
2023/01/08 14:22:58;;;;;;;;;;;;;;;4.75;100.00;98282.59;4233292;33;19976;-75
2023/01/08 14:25:24;;;;;;;;;;;;;;;4.62;100.00;98282.84;4217781;33;20005;-74
2023/01/08 14:27:58;;;;;;;;;;;;;;;4.45;100.00;98277.34;4221063;34;19974;-74
2023/01/08 14:30:25;;;;;;;;;;;;;;;4.75;100.00;98271.13;4235696;33;20007;-74
2023/01/08 14:32:52;;;;;;;;;;;;;;;4.80;100.00;98280.06;4276847;33;20113;-75
2023/01/08 14:35:22;;;;;;;;;;;;;;;4.52;100.00;98275.41;4278116;33;19959;-73
2023/01/08 14:37:48;;;;;;;;;;;;;;;4.84;100.00;98280.44;4279273;33;19949;-75
2023/01/08 14:40:15;;;;;;;;;;;;;;;4.82;100.00;98283.31;4278065;33;20353;-73
2023/01/08 14:42:45;;;;;;;;;;;;;;;4.70;100.00;98275.28;4277079;33;20106;-74
2023/01/08 14:45:11;;;;;;;;;;;;;;;4.53;100.00;98275.16;4278454;33;20386;-75
2023/01/08 14:47:41;;;;;;;;;;;;;;;4.61;100.00;98276.69;4242651;33;19949;-75
2023/01/08 14:50:16;;;;;;;;;;;;;;;4.72;100.00;98262.56;4246880;33;19992;-75
2023/01/08 14:52:42;;;;;;;;;;;;;;;4.46;100.00;98262.97;4251559;33;20003;-75
2023/01/08 14:55:13;;;;;;;;;;;;;;;4.74;100.00;98254.34;4251980;33;19962;-75
2023/01/08 14:57:42;;;;;;;;;;;;;;;4.86;100.00;98251.66;4280641;33;19955;-75